Time;durP1;ratioP1;P1;durP2;ratioP2;P2;SDS_P1;SDS_P2;PMS_P1;PMS_P2;Temp;Humidity;BMP_temperature;BMP_pressure;BME280_temperature;BME280_humidity;BME280_pressure;Samples;Min_cycle;Max_cycle;Signal;HPM_P1;HPM_P2
2022/10/04 03:39:59;;;;;;;;;;;;;;;;;;;;;
2022/10/04 05:05:53;;;;;;;;;;;;;;;;;;;;;
2022/10/04 06:36:40;;;;;;;;;;;;;;;;;;;;;
2022/10/04 06:40:00;;;;;;;;;;;;;;;;;;;;;
2022/10/04 06:43:13;;;;;;;;;;;;;;;;;;;;;
2022/10/04 07:56:01;;;;;;;;;;;;;;;;;;;;;
2022/10/04 07:58:29;;;;;;;;;;;;;;;;;;;;;
2022/10/04 08:37:59;;;;;;;;;;;;;;;;;;;;;
2022/10/04 08:40:46;;;;;;;;;;;;;;;;;;;;;
2022/10/04 09:05:27;;;;;;;;;;;;;;;;;;;;;
2022/10/04 09:08:05;;;;;;;2.93;2.13;;;20.70;54.40;;;;;;6021992;23;20392;-93
2022/10/04 09:49:37;;;;;;;;;;;;;;;;;;;;;
2022/10/04 09:56:07;;;;;;;;;;;;;;;;;;;;;
2022/10/04 10:27:10;;;;;;;1.50;1.40;;;20.80;54.70;;;;;;5980768;23;20793;-92
2022/10/04 10:29:44;;;;;;;1.60;1.50;;;20.80;54.60;;;;;;5943642;24;20665;-92
2022/10/04 10:33:07;;;;;;;;;;;;;;;;;;;;;
2022/10/04 10:45:19;;;;;;;;;;;;;;;;;;;;;
2022/10/04 10:48:34;;;;;;;;;;;;;;;;;;;;;
2022/10/04 10:52:02;;;;;;;;;;;;;;;;;;;;;
2022/10/04 10:54:56;;;;;;;9.33;4.67;;;20.90;54.50;;;;;;5979371;23;20410;-93
2022/10/04 10:58:35;;;;;;;;;;;;;;;;;;;;;
2022/10/04 11:05:39;;;;;;;;;;;;;;;;;;;;;
2022/10/04 11:12:09;;;;;;;23.57;9.00;;;20.90;54.60;;;;;;5964087;23;20387;-92
2022/10/04 11:15:23;;;;;;;25.57;12.73;;;20.90;54.60;;;;;;5999090;23;20380;-92
2022/10/04 11:21:33;;;;;;;36.87;15.57;;;20.90;54.60;;;;;;6051867;23;20760;-92
2022/10/04 11:24:36;;;;;;;37.47;18.70;;;20.90;54.60;;;;;;6051629;23;20364;-91
2022/10/04 11:27:27;;;;;;;47.23;20.77;;;20.90;54.60;;;;;;6050544;23;20368;-93
2022/10/04 11:30:22;;;;;;;32.50;19.40;;;20.90;54.60;;;;;;6050462;23;20401;-92
2022/10/04 11:33:22;;;;;;;36.10;19.90;;;20.90;54.60;;;;;;6027332;23;20416;-93
2022/10/04 11:36:30;;;;;;;35.03;20.37;;;21.00;54.70;;;;;;6051096;23;20388;-92
2022/10/04 11:39:43;;;;;;;31.27;19.47;;;21.00;54.70;;;;;;6051581;23;20403;-92
2022/10/04 11:42:21;;;;;;;35.30;18.20;;;21.00;54.70;;;;;;6053742;23;20375;-92
2022/10/04 11:45:01;;;;;;;36.07;16.40;;;21.00;54.70;;;;;;6041300;23;20376;-92
2022/10/04 11:54:28;;;;;;;26.90;14.40;;;21.00;54.80;;;;;;6112113;23;20365;-92
2022/10/04 11:57:18;;;;;;;34.73;15.07;;;21.00;54.80;;;;;;6086461;23;20412;-91
2022/10/04 12:34:35;;;;;;;;;;;;;;;;;;;;;
2022/10/04 12:37:34;;;;;;;;;;;;;;;;;;;;;
2022/10/04 12:43:51;;;;;;;;;;;;;;;;;;;;;
2022/10/04 14:06:36;;;;;;;14.10;7.03;;;21.00;54.70;;;;;;6168555;23;20473;-91
2022/10/04 14:09:20;;;;;;;11.50;5.60;;;21.00;54.70;;;;;;6166253;23;20661;-91
2022/10/04 14:12:20;;;;;;;7.67;5.57;;;21.00;54.60;;;;;;6166744;23;20380;-90
2022/10/04 14:15:10;;;;;;;11.27;5.70;;;21.00;54.60;;;;;;6166429;23;20380;-90
2022/10/04 14:17:40;;;;;;;13.70;5.40;;;21.00;54.60;;;;;;6167736;23;20356;-90
2022/10/04 14:20:35;;;;;;;10.27;5.83;;;21.00;54.50;;;;;;6166122;23;20479;-89
2022/10/04 14:23:41;;;;;;;9.03;5.30;;;21.00;54.50;;;;;;6167121;23;20813;-90
2022/10/04 14:26:38;;;;;;;15.03;5.70;;;21.00;54.50;;;;;;6167674;23;20356;-89
2022/10/04 14:29:22;;;;;;;11.63;6.30;;;21.00;54.50;;;;;;6165236;23;20451;-90
2022/10/04 14:32:41;;;;;;;15.40;5.90;;;21.00;54.50;;;;;;6166031;23;20436;-90
2022/10/04 14:35:36;;;;;;;6.60;4.90;;;21.00;54.50;;;;;;6166556;23;20437;-90
2022/10/04 14:38:42;;;;;;;12.27;5.47;;;21.00;54.60;;;;;;6166048;23;20436;-90
2022/10/04 14:41:45;;;;;;;14.67;6.30;;;21.00;54.60;;;;;;6166279;23;20475;-90
2022/10/04 14:44:32;;;;;;;10.37;5.47;;;21.00;54.60;;;;;;6169550;23;20384;-90
2022/10/04 14:47:03;;;;;;;9.80;6.50;;;21.00;54.60;;;;;;6168477;23;20372;-90
2022/10/04 14:49:38;;;;;;;12.37;5.90;;;21.00;54.60;;;;;;6169399;23;20383;-92
2022/10/04 14:53:13;;;;;;;12.07;5.60;;;21.00;54.60;;;;;;6169935;23;20439;-91
2022/10/04 14:55:48;;;;;;;9.43;5.00;;;21.00;54.60;;;;;;6175264;23;20383;-90
2022/10/04 14:58:58;;;;;;;9.77;5.57;;;21.00;54.60;;;;;;6170850;23;20359;-92
2022/10/04 15:02:04;;;;;;;11.07;5.33;;;21.00;54.60;;;;;;6167942;23;20442;-93
2022/10/04 15:04:57;;;;;;;8.90;5.30;;;21.00;54.60;;;;;;6168628;23;20379;-90
2022/10/04 15:07:38;;;;;;;11.93;5.13;;;21.00;54.70;;;;;;6167050;23;20368;-91
2022/10/04 15:10:19;;;;;;;8.67;4.67;;;21.00;54.70;;;;;;6165453;23;20483;-91
2022/10/04 15:13:08;;;;;;;7.43;4.53;;;21.00;54.70;;;;;;6165707;23;20408;-90
2022/10/04 15:15:55;;;;;;;9.10;4.60;;;21.00;54.70;;;;;;6165505;23;20372;-90
2022/10/04 15:18:34;;;;;;;6.90;4.27;;;21.00;54.70;;;;;;6166126;23;20372;-89
2022/10/04 15:21:21;;;;;;;13.27;4.50;;;21.00;54.70;;;;;;6166923;23;20469;-91
2022/10/04 15:23:58;;;;;;;11.60;4.47;;;21.00;54.80;;;;;;6166618;23;20643;-91
2022/10/04 15:27:29;;;;;;;;;;;;;;;;;;;;;
2022/10/04 15:30:30;;;;;;;8.10;5.10;;;21.00;54.70;;;;;;6198849;23;20806;-90
2022/10/04 15:33:50;;;;;;;10.20;4.70;;;21.00;54.80;;;;;;6173683;23;20375;-89
2022/10/04 15:37:18;;;;;;;8.67;4.50;;;21.00;54.80;;;;;;6172537;23;20454;-90
2022/10/04 15:40:07;;;;;;;7.50;3.90;;;21.00;54.80;;;;;;6197136;23;20466;-90
2022/10/04 15:42:43;;;;;;;7.77;4.57;;;20.90;54.80;;;;;;6174369;23;20382;-90
2022/10/04 15:45:34;;;;;;;7.77;5.20;;;20.90;54.80;;;;;;6202426;23;20440;-90
2022/10/04 15:48:37;;;;;;;8.33;5.03;;;21.00;54.80;;;;;;6198148;23;20364;-90
2022/10/04 15:51:32;;;;;;;9.83;4.23;;;21.00;54.80;;;;;;6175814;23;20383;-90
2022/10/04 15:54:04;;;;;;;9.50;4.30;;;20.90;54.80;;;;;;6175073;23;20386;-90
2022/10/04 15:56:44;;;;;;;7.87;4.47;;;20.90;54.80;;;;;;6172984;23;20641;-90
2022/10/04 15:59:22;;;;;;;9.00;3.93;;;20.90;54.80;;;;;;6174758;23;20379;-90
2022/10/04 16:01:54;;;;;;;8.17;3.30;;;20.90;54.70;;;;;;6174616;23;20375;-91
2022/10/04 16:04:39;;;;;;;9.87;4.53;;;20.90;54.70;;;;;;6166327;23;20376;-89
2022/10/04 16:07:36;;;;;;;7.60;4.57;;;21.00;54.80;;;;;;6167083;23;20431;-89
2022/10/04 16:10:25;;;;;;;7.20;3.97;;;21.00;54.70;;;;;;6164613;23;20455;-89
2022/10/04 16:13:39;;;;;;;5.30;3.50;;;21.00;54.70;;;;;;6165456;23;20390;-90
2022/10/04 16:16:42;;;;;;;10.67;4.00;;;21.00;54.70;;;;;;6169397;23;20382;-90
2022/10/04 16:19:51;;;;;;;7.67;4.23;;;21.00;54.70;;;;;;6164864;23;20515;-89
2022/10/04 16:22:21;;;;;;;7.27;4.43;;;21.00;54.70;;;;;;6165675;23;20447;-90
2022/10/04 16:25:30;;;;;;;5.70;4.03;;;20.90;54.60;;;;;;6165667;23;20380;-89
2022/10/04 16:28:51;;;;;;;6.83;3.70;;;21.00;55.20;;;;;;6173506;23;20375;-89
2022/10/04 16:31:41;;;;;;;8.00;3.67;;;21.00;54.60;;;;;;6023767;23;20380;-90
2022/10/04 16:34:32;;;;;;;;;;;;;;;;;;;;;
2022/10/04 16:40:32;;;;;;;6.13;3.90;;;21.00;54.80;;;;;;6060113;23;20485;-89
2022/10/04 16:43:16;;;;;;;4.87;3.37;;;20.90;54.80;;;;;;6047551;23;20414;-90
2022/10/04 16:46:02;;;;;;;5.20;3.73;;;21.00;54.80;;;;;;6048967;23;20387;-89
2022/10/04 16:48:49;;;;;;;6.00;3.83;;;21.00;54.80;;;;;;6048112;23;20463;-90
2022/10/04 16:58:52;;;;;;;7.33;4.70;;;21.00;54.80;;;;;;6081487;23;20365;-91
2022/10/04 17:01:33;;;;;;;;;;;;;;;;;;;;;
2022/10/04 17:04:42;;;;;;;;;;;;;;;;;;;;;
2022/10/04 17:08:00;;;;;;;;;;;;;;;;;;;;;
2022/10/04 17:10:48;;;;;;;5.90;3.50;;;21.00;54.80;;;;;;6146467;23;20454;-90
2022/10/04 17:13:27;;;;;;;6.33;3.97;;;21.00;54.80;;;;;;6197996;23;20363;-90
2022/10/04 17:16:48;;;;;;;;;;;;;;;;;;;;;
2022/10/04 17:19:52;;;;;;;6.70;3.57;;;21.00;54.70;;;;;;6080074;23;20382;-91
2022/10/04 17:22:55;;;;;;;6.63;4.03;;;21.00;54.80;;;;;;6074007;23;20379;-91
2022/10/04 17:25:38;;;;;;;5.87;3.33;;;21.00;54.70;;;;;;6150794;23;20388;-92
2022/10/04 17:29:03;;;;;;;;;;;;;;;;;;;;;
2022/10/04 17:32:32;;;;;;;;;;;;;;;;;;;;;
2022/10/04 17:35:27;;;;;;;;;;;;;;;;;;;;;
2022/10/04 17:38:39;;;;;;;;;;;;;;;;;;;;;
2022/10/04 17:42:12;;;;;;;4.27;3.50;;;21.00;54.80;;;;;;6083132;23;20438;-92
2022/10/04 17:55:51;;;;;;;7.40;3.60;;;21.00;54.80;;;;;;6094769;23;20375;-91
2022/10/04 17:59:21;;;;;;;;;;;;;;;;;;;;;
2022/10/04 18:26:26;;;;;;;;;;;;;;;;;;;;;
2022/10/04 18:29:09;;;;;;;8.77;2.90;;;20.90;54.80;;;;;;5996896;24;20392;-92
2022/10/04 18:39:29;;;;;;;;;;;;;;;;;;;;;
2022/10/04 18:43:01;;;;;;;4.73;3.10;;;21.00;54.90;;;;;;5942434;24;20418;-90
2022/10/04 18:56:06;;;;;;;;;;;;;;;;;;;;;
2022/10/04 19:02:06;;;;;;;5.83;3.37;;;20.90;54.90;;;;;;5969048;24;20370;-92
2022/10/04 19:05:30;;;;;;;;;;;;;;;;;;;;;
2022/10/04 19:11:40;;;;;;;;;;;;;;;;;;;;;
2022/10/04 19:14:33;;;;;;;;;;;;;;;;;;;;;
2022/10/04 19:18:09;;;;;;;6.10;3.10;;;21.00;55.00;;;;;;6139742;23;20385;-95
2022/10/04 19:21:18;;;;;;;;;;;;;;;;;;;;;
2022/10/04 19:24:17;;;;;;;3.83;2.93;;;21.00;55.00;;;;;;6135694;23;20373;-91
2022/10/04 19:30:05;;;;;;;3.90;2.77;;;21.00;55.00;;;;;;6140816;23;20393;-91
2022/10/04 19:32:56;;;;;;;3.87;3.00;;;20.90;54.90;;;;;;6144626;23;20372;-92
2022/10/04 19:39:08;;;;;;;3.67;2.67;;;21.00;54.90;;;;;;6167395;23;20353;-92
2022/10/04 19:42:32;;;;;;;4.90;3.03;;;20.90;54.80;;;;;;6165309;23;20419;-91
2022/10/04 19:49:11;;;;;;;5.63;3.33;;;20.90;54.90;;;;;;6122012;23;20395;-90
2022/10/04 19:51:59;;;;;;;;;;;;;;;;;;;;;
2022/10/04 19:54:38;;;;;;;5.87;3.00;;;20.90;55.60;;;;;;6167316;23;20367;-90
2022/10/04 19:57:24;;;;;;;4.13;3.20;;;20.90;55.10;;;;;;6166015;23;20387;-90
2022/10/04 20:00:14;;;;;;;6.90;3.30;;;20.90;55.20;;;;;;6168519;23;20424;-90
2022/10/04 20:02:43;;;;;;;5.17;3.00;;;20.90;55.20;;;;;;6165694;23;20396;-91
2022/10/04 20:05:27;;;;;;;9.57;3.00;;;20.90;55.30;;;;;;6166382;23;20395;-91
2022/10/04 20:08:04;;;;;;;14.77;3.20;;;21.00;55.30;;;;;;6166753;23;20805;-90
2022/10/04 20:10:44;;;;;;;8.80;2.80;;;20.90;55.50;;;;;;6164903;23;20806;-91
2022/10/04 20:13:26;;;;;;;6.07;2.40;;;21.00;55.60;;;;;;6165590;23;20438;-91
2022/10/04 20:15:53;;;;;;;7.60;2.70;;;21.00;55.60;;;;;;6165007;23;20373;-91
2022/10/04 20:18:56;;;;;;;5.67;3.07;;;21.00;55.70;;;;;;6166671;23;20372;-90
2022/10/04 20:21:27;;;;;;;6.57;4.00;;;21.00;55.60;;;;;;6176000;23;20829;-89
2022/10/04 20:23:54;;;;;;;6.60;3.30;;;21.00;55.60;;;;;;6166869;23;20755;-91
2022/10/04 20:26:55;;;;;;;4.00;2.80;;;21.00;55.60;;;;;;6165460;23;20434;-91
2022/10/04 20:29:36;;;;;;;4.90;3.27;;;21.00;55.50;;;;;;6166534;23;20353;-90
2022/10/04 20:32:35;;;;;;;6.13;3.50;;;21.00;55.50;;;;;;6164468;23;20376;-91
2022/10/04 20:35:10;;;;;;;4.33;3.17;;;21.00;55.40;;;;;;6165204;23;20817;-91
2022/10/04 20:37:52;;;;;;;10.73;3.10;;;21.00;55.40;;;;;;6165194;23;20379;-91
2022/10/04 20:40:21;;;;;;;3.73;2.90;;;21.00;55.40;;;;;;6165180;23;20498;-91
2022/10/04 20:43:24;;;;;;;4.90;2.60;;;21.00;55.40;;;;;;6165899;23;20443;-90
2022/10/04 20:45:53;;;;;;;3.87;2.40;;;21.00;55.30;;;;;;6199894;23;20472;-90
2022/10/04 20:48:25;;;;;;;6.27;3.30;;;21.00;55.30;;;;;;6170919;23;20403;-90
2022/10/04 20:50:52;;;;;;;4.70;3.17;;;21.00;55.30;;;;;;6165904;23;20369;-91
2022/10/04 20:53:33;;;;;;;4.30;3.03;;;21.00;55.30;;;;;;6167377;23;20372;-90
2022/10/04 20:56:19;;;;;;;6.27;3.80;;;21.00;55.30;;;;;;6167353;23;20430;-90
2022/10/04 20:58:51;;;;;;;4.20;2.87;;;21.00;55.20;;;;;;6165734;23;20411;-91
2022/10/04 21:04:14;;;;;;;4.97;3.23;;;21.00;55.20;;;;;;6177290;23;20378;-91
2022/10/04 21:06:55;;;;;;;2.70;2.33;;;21.00;55.20;;;;;;6165468;23;20403;-91
2022/10/04 21:09:21;;;;;;;7.10;3.23;;;21.00;55.10;;;;;;6166263;23;20372;-91
2022/10/04 21:11:50;;;;;;;4.60;3.13;;;21.00;55.10;;;;;;6165961;23;20486;-91
2022/10/04 21:14:35;;;;;;;4.63;2.47;;;21.00;55.10;;;;;;6167184;23;20455;-91
2022/10/04 21:17:27;;;;;;;2.73;2.30;;;21.00;55.10;;;;;;6141235;23;20659;-92
2022/10/04 21:19:58;;;;;;;3.03;2.10;;;21.00;55.10;;;;;;6166498;23;20435;-91
2022/10/04 21:22:29;;;;;;;3.83;2.43;;;21.00;55.10;;;;;;6165743;23;20407;-91
2022/10/04 21:25:16;;;;;;;4.90;2.87;;;21.00;55.00;;;;;;6167610;23;20424;-91
2022/10/04 21:27:42;;;;;;;5.47;2.27;;;21.00;55.00;;;;;;6164171;23;20380;-92
2022/10/04 21:30:26;;;;;;;3.33;2.10;;;21.00;55.00;;;;;;6166551;23;20408;-91
2022/10/04 21:32:52;;;;;;;4.20;2.70;;;21.00;55.00;;;;;;6167412;23;20390;-92
2022/10/04 21:35:22;;;;;;;2.90;2.10;;;21.00;55.00;;;;;;6165913;23;20388;-91
2022/10/04 21:37:50;;;;;;;3.47;2.40;;;21.00;55.00;;;;;;6167862;23;20141;-92
2022/10/04 21:40:40;;;;;;;4.53;2.47;;;21.00;54.90;;;;;;6168429;23;20407;-91
2022/10/04 21:43:05;;;;;;;3.80;2.60;;;21.00;54.90;;;;;;6167004;23;20380;-92
2022/10/04 21:45:31;;;;;;;2.20;2.00;;;21.00;54.90;;;;;;6166305;23;20372;-91
2022/10/04 21:47:56;;;;;;;3.17;2.30;;;21.00;54.80;;;;;;6165851;23;20168;-91
2022/10/04 21:50:22;;;;;;;4.50;2.20;;;21.00;54.80;;;;;;6166771;23;20221;-91
2022/10/04 21:52:48;;;;;;;3.67;2.53;;;21.00;54.80;;;;;;6167171;23;20149;-90
2022/10/04 21:55:16;;;;;;;4.93;2.63;;;21.00;54.80;;;;;;6166305;23;20184;-90
2022/10/04 21:58:02;;;;;;;5.43;2.30;;;21.00;54.80;;;;;;6166639;23;20156;-90
2022/10/04 22:00:28;;;;;;;3.60;2.33;;;21.00;54.80;;;;;;6165774;23;20419;-91
2022/10/04 22:02:57;;;;;;;4.63;2.50;;;21.00;54.80;;;;;;6167099;23;20379;-91
2022/10/04 22:05:23;;;;;;;3.83;2.63;;;21.00;54.80;;;;;;6168025;23;20151;-91
2022/10/04 22:07:48;;;;;;;3.83;2.17;;;21.00;54.80;;;;;;6167045;23;20360;-91
2022/10/04 22:10:17;;;;;;;4.50;2.90;;;21.00;54.80;;;;;;6168982;23;20156;-91
2022/10/04 22:12:43;;;;;;;4.20;2.40;;;21.00;54.80;;;;;;6167012;23;20411;-92
2022/10/04 22:15:09;;;;;;;3.30;2.63;;;21.00;54.80;;;;;;6166071;23;20388;-91
2022/10/04 22:17:35;;;;;;;3.30;2.80;;;21.00;54.80;;;;;;6167447;23;20267;-92
2022/10/04 22:20:06;;;;;;;2.97;2.00;;;21.00;54.80;;;;;;6167153;23;20176;-91
2022/10/04 22:22:35;;;;;;;4.27;2.67;;;21.00;54.80;;;;;;6165422;23;20145;-91
2022/10/04 22:25:01;;;;;;;3.70;2.40;;;21.00;54.70;;;;;;6165536;23;20387;-91
2022/10/04 22:27:30;;;;;;;4.00;2.10;;;21.00;54.70;;;;;;6165280;23;20651;-92
2022/10/04 22:29:59;;;;;;;3.17;2.23;;;21.00;54.70;;;;;;6165996;23;20148;-90
2022/10/04 22:32:26;;;;;;;2.90;2.00;;;21.00;54.70;;;;;;6165936;23;20384;-91
2022/10/04 22:35:00;;;;;;;4.30;2.30;;;21.00;54.70;;;;;;6166750;23;20767;-91
2022/10/04 22:37:28;;;;;;;3.97;2.07;;;21.00;54.70;;;;;;6167235;23;20361;-90
2022/10/04 22:39:55;;;;;;;3.53;2.10;;;21.00;54.70;;;;;;6166413;23;20439;-90
2022/10/04 22:42:27;;;;;;;3.23;2.80;;;21.00;54.70;;;;;;6166829;23;20398;-89
2022/10/04 22:44:55;;;;;;;3.10;2.33;;;21.00;54.70;;;;;;6165784;23;20377;-90
2022/10/04 22:47:23;;;;;;;4.03;2.43;;;21.00;54.70;;;;;;6165437;23;20445;-90
2022/10/04 22:49:52;;;;;;;4.33;3.00;;;21.00;54.70;;;;;;6167159;23;20365;-91
2022/10/04 22:52:22;;;;;;;3.40;2.50;;;21.00;54.70;;;;;;6167597;23;20416;-90
2022/10/04 22:54:52;;;;;;;2.90;2.07;;;21.00;54.70;;;;;;6167157;23;20384;-90
2022/10/04 22:57:19;;;;;;;3.70;2.10;;;21.00;54.80;;;;;;6168664;23;20381;-90
2022/10/04 22:59:51;;;;;;;3.90;2.60;;;21.00;54.80;;;;;;6168659;23;20427;-90
2022/10/04 23:02:22;;;;;;;3.43;2.50;;;21.00;54.80;;;;;;6166369;23;20384;-90
2022/10/04 23:05:08;;;;;;;2.60;2.37;;;21.00;54.70;;;;;;6168007;23;20428;-90
2022/10/04 23:07:34;;;;;;;2.53;2.10;;;21.00;54.70;;;;;;6169593;23;20428;-90
2022/10/04 23:10:01;;;;;;;3.70;2.37;;;21.00;54.80;;;;;;6165819;23;20395;-90
2022/10/04 23:12:27;;;;;;;2.90;2.00;;;21.00;54.70;;;;;;6168529;23;20531;-90
2022/10/04 23:14:53;;;;;;;5.27;2.60;;;21.00;54.70;;;;;;6169690;23;20365;-90
2022/10/04 23:17:24;;;;;;;2.87;2.07;;;21.00;54.70;;;;;;6166497;23;20153;-91
2022/10/04 23:20:05;;;;;;;3.17;2.07;;;21.00;54.60;;;;;;6165610;23;20468;-90
2022/10/04 23:22:31;;;;;;;3.33;2.10;;;21.00;54.60;;;;;;6167051;23;20352;-91
2022/10/04 23:24:58;;;;;;;2.90;2.30;;;21.00;54.60;;;;;;6167454;23;20394;-91
2022/10/04 23:27:24;;;;;;;4.67;2.40;;;21.00;54.60;;;;;;6167021;23;20140;-91
2022/10/04 23:29:57;;;;;;;2.83;2.27;;;21.00;54.60;;;;;;6165406;23;20396;-91
2022/10/04 23:32:28;;;;;;;2.00;1.80;;;21.00;54.70;;;;;;6165866;23;20372;-91
2022/10/04 23:34:54;;;;;;;3.10;2.07;;;21.00;54.70;;;;;;6165893;23;20371;-91
2022/10/04 23:37:23;;;;;;;3.20;2.43;;;21.00;54.70;;;;;;6165471;23;20380;-90
2022/10/04 23:39:49;;;;;;;4.80;2.23;;;21.00;54.70;;;;;;6165701;23;20422;-91
2022/10/04 23:42:27;;;;;;;3.27;2.13;;;21.00;54.70;;;;;;6166164;23;20372;-91
2022/10/04 23:44:54;;;;;;;3.40;2.30;;;21.00;54.70;;;;;;6166274;23;20690;-91
2022/10/04 23:47:21;;;;;;;2.23;1.80;;;21.00;54.60;;;;;;6165544;23;20386;-91
2022/10/04 23:49:50;;;;;;;2.50;1.80;;;21.00;54.60;;;;;;6165484;23;20447;-92
2022/10/04 23:52:36;;;;;;;3.03;2.20;;;21.00;54.60;;;;;;6165579;23;20399;-91
2022/10/04 23:55:11;;;;;;;3.97;2.73;;;21.00;54.60;;;;;;6166145;23;20411;-91
2022/10/04 23:57:37;;;;;;;2.43;1.97;;;21.00;54.60;;;;;;6166384;23;20395;-91
